Terminal Aerodrome Forecast
Issued by NWS Denver/Boulder, CO

Home | Current Version | Previous Version | Text Only | Print | Product List | Glossary On
Versions: 1 2 3 4 5 6 7 8 9 10 11 12 13 14 15 16 17 18 19 20 21 22 23 24 25 26 27 28 29 30 31 32 33 34 35 36 37 38 39 40 41 42 43 44 45 46 47 48 49 50
000
FTUS45 KBOU 270616 AAA
TAFDEN
TAF AMD
KDEN 270616Z 2706/2812 21005KT P6SM VCSH SCT012 BKN040
      TEMPO 2706/2708 4SM -SN BR SCT005 BKN012
     FM270800 21006KT P6SM SCT025 BKN050 BKN080
     FM271000 20007KT P6SM FEW040 SCT080
     FM271400 VRB05KT P6SM FEW200
     FM271900 16007KT P6SM FEW200
     FM280200 22010KT P6SM SKC=

USA.gov is the U.S. government's official web portal to all federal, state and local government web resources and services.